createdAt,value
2022-11-08T00:02:03.605Z,0.35
2022-11-08T00:05:24.699Z,0.55
2022-11-08T00:08:44.825Z,0.60
2022-11-08T00:12:05.257Z,0.40
2022-11-08T00:15:09.623Z,0.68
2022-11-08T00:18:11.325Z,0.52
2022-11-08T00:21:12.938Z,0.55
2022-11-08T00:24:14.591Z,0.60
2022-11-08T00:27:18.458Z,0.90
2022-11-08T00:30:21.548Z,0.77
2022-11-08T00:33:23.385Z,0.40
2022-11-08T00:36:25.045Z,0.50
2022-11-08T00:39:26.872Z,0.20
2022-11-08T00:42:28.586Z,0.95
2022-11-08T00:45:31.587Z,0.30
2022-11-08T00:48:33.169Z,0.43
2022-11-08T00:51:35.176Z,0.20
2022-11-08T00:54:36.828Z,0.25
2022-11-08T00:57:53.971Z,0.43
2022-11-08T01:01:08.255Z,0.28
2022-11-08T01:04:11.411Z,0.55
2022-11-08T01:07:13.027Z,0.28
2022-11-08T01:10:14.748Z,0.50
2022-11-08T01:13:17.290Z,0.50
2022-11-08T01:16:22.873Z,0.50
2022-11-08T01:19:24.646Z,0.50
2022-11-08T01:22:26.328Z,0.40
2022-11-08T01:25:27.989Z,0.30
2022-11-08T01:28:29.665Z,0.50
2022-11-08T01:31:32.706Z,0.35
2022-11-08T01:34:34.646Z,0.35
2022-11-08T01:37:36.325Z,0.40
2022-11-08T01:40:42.929Z,0.35
2022-11-08T01:43:45.654Z,0.32
2022-11-08T01:46:48.829Z,0.30
2022-11-08T01:49:51.792Z,0.50
2022-11-08T01:52:55.234Z,0.20
2022-11-08T01:55:57.676Z,0.30
2022-11-08T01:59:02.269Z,0.40
2022-11-08T02:02:07.621Z,0.30
2022-11-08T02:05:24.844Z,0.35
2022-11-08T02:08:32.541Z,0.25
2022-11-08T02:11:34.798Z,0.30
2022-11-08T02:14:36.907Z,0.47
2022-11-08T02:17:40.029Z,0.50
2022-11-08T02:20:48.756Z,0.50
2022-11-08T02:23:54.332Z,0.60
2022-11-08T02:26:57.545Z,0.52
2022-11-08T02:29:59.200Z,0.30
2022-11-08T02:33:01.160Z,0.75
2022-11-08T02:36:04.437Z,0.40
2022-11-08T02:39:07.406Z,0.40
2022-11-08T02:42:13.089Z,0.30
2022-11-08T02:45:14.759Z,0.35
2022-11-08T02:48:17.304Z,0.82
2022-11-08T02:51:19.190Z,0.45
2022-11-08T02:54:22.283Z,0.65
2022-11-08T02:57:23.951Z,1.05
2022-11-08T03:00:25.670Z,0.50
2022-11-08T03:03:27.268Z,0.43
2022-11-08T03:06:28.979Z,0.50
2022-11-08T03:09:31.928Z,0.85
2022-11-08T03:12:33.664Z,0.25
2022-11-08T03:15:35.275Z,0.35
2022-11-08T03:18:36.914Z,0.52
2022-11-08T03:21:38.696Z,0.25
2022-11-08T03:24:41.842Z,0.43
2022-11-08T03:27:43.409Z,0.40
2022-11-08T03:30:45.110Z,0.20
2022-11-08T03:33:46.724Z,0.40
2022-11-08T03:36:48.612Z,0.60
2022-11-08T03:39:51.610Z,0.35
2022-11-08T03:42:55.224Z,0.40
2022-11-08T03:45:56.880Z,0.60
2022-11-08T03:48:58.499Z,0.40
2022-11-08T03:52:00.121Z,0.60
2022-11-08T03:55:03.091Z,0.40
2022-11-08T03:58:04.699Z,0.90
2022-11-08T04:01:06.766Z,0.70
2022-11-08T04:04:08.675Z,0.30
2022-11-08T04:07:10.248Z,0.95
2022-11-08T04:10:13.792Z,0.57
2022-11-08T04:13:43.342Z,0.30
2022-11-08T04:16:45.143Z,0.50
2022-11-08T04:20:05.630Z,0.60
2022-11-08T04:23:07.269Z,0.40
2022-11-08T04:26:11.920Z,0.50
2022-11-08T04:29:13.618Z,0.32
2022-11-08T04:32:15.258Z,0.60
2022-11-08T04:35:17.094Z,0.40
2022-11-08T04:38:19.883Z,0.40
2022-11-08T04:41:24.879Z,0.43
2022-11-08T04:44:26.496Z,0.38
2022-11-08T04:47:28.192Z,0.52
2022-11-08T04:50:29.806Z,0.47
2022-11-08T04:53:32.165Z,0.50
2022-11-08T04:56:35.272Z,0.50
2022-11-08T04:59:36.961Z,0.40
2022-11-08T05:02:38.612Z,0.47
2022-11-08T05:05:40.379Z,0.95
2022-11-08T05:08:42.557Z,0.57
2022-11-08T05:11:45.515Z,0.93
2022-11-08T05:14:47.387Z,0.43
2022-11-08T05:17:48.979Z,0.40
2022-11-08T05:21:12.178Z,0.50
2022-11-08T05:24:16.402Z,0.60
2022-11-08T05:27:19.390Z,0.40
2022-11-08T05:30:21.029Z,0.40
2022-11-08T05:33:23.324Z,0.45
2022-11-08T05:36:24.953Z,0.50
2022-11-08T05:39:30.956Z,0.60
2022-11-08T05:42:35.102Z,0.70
2022-11-08T05:45:36.859Z,0.90
2022-11-08T05:48:38.771Z,0.85
2022-11-08T05:51:40.395Z,0.70
2022-11-08T05:54:42.049Z,1.20
2022-11-08T05:57:44.988Z,0.73
2022-11-08T06:00:46.619Z,0.65
2022-11-08T06:03:48.758Z,0.40
2022-11-08T06:06:50.748Z,0.70
2022-11-08T06:09:52.371Z,0.50
2022-11-08T06:12:58.912Z,0.40
2022-11-08T06:16:02.052Z,0.50
2022-11-08T06:19:03.688Z,0.50
2022-11-08T06:22:05.525Z,0.17
2022-11-08T06:25:07.747Z,0.25
2022-11-08T06:28:10.747Z,0.50
2022-11-08T06:31:12.360Z,0.60
2022-11-08T06:34:14.036Z,1.08
2022-11-08T06:37:16.222Z,0.70
2022-11-08T06:40:17.877Z,0.82
2022-11-08T06:43:21.119Z,0.90
2022-11-08T06:46:23.346Z,0.80
2022-11-08T06:49:25.529Z,0.63
2022-11-08T06:52:27.225Z,0.50
2022-11-08T06:55:29.744Z,0.63
2022-11-08T06:58:32.762Z,0.70
2022-11-08T07:01:34.836Z,0.70
2022-11-08T07:04:36.802Z,0.52
2022-11-08T07:07:38.758Z,1.02
2022-11-08T07:10:40.671Z,0.70
2022-11-08T07:13:43.682Z,0.75
2022-11-08T07:16:45.370Z,1.00
2022-11-08T07:19:46.991Z,0.73
2022-11-08T07:22:48.625Z,0.63
2022-11-08T07:25:50.248Z,0.90
2022-11-08T07:28:53.232Z,1.00
2022-11-08T07:31:54.888Z,0.75
2022-11-08T07:34:56.466Z,0.85
2022-11-08T07:37:58.243Z,1.08
2022-11-08T07:41:01.425Z,1.13
2022-11-08T07:44:04.474Z,0.80
2022-11-08T07:47:06.176Z,1.02
2022-11-08T07:50:08.811Z,0.75
2022-11-08T07:53:10.906Z,0.50
2022-11-08T07:56:12.511Z,0.80
2022-11-08T07:59:16.186Z,1.00
2022-11-08T08:02:18.061Z,0.55
2022-11-08T08:05:19.762Z,0.70
2022-11-08T08:08:21.814Z,0.80
2022-11-08T08:11:23.530Z,1.10
2022-11-08T08:14:26.547Z,1.00
2022-11-08T08:17:28.182Z,1.10
2022-11-08T08:20:30.128Z,1.08
2022-11-08T08:23:31.816Z,0.95
2022-11-08T08:26:33.468Z,1.00
2022-11-08T08:29:36.502Z,0.70
2022-11-08T08:32:38.191Z,1.00
2022-11-08T08:35:42.926Z,1.00
2022-11-08T08:38:44.953Z,1.35
2022-11-08T08:41:46.606Z,1.08
2022-11-08T08:44:49.704Z,1.45
2022-11-08T08:47:52.523Z,1.23
2022-11-08T08:50:54.534Z,1.45
2022-11-08T08:53:56.183Z,1.08
2022-11-08T08:56:57.822Z,0.93
2022-11-08T09:03:22.638Z,0.80
2022-11-08T09:06:24.462Z,1.10
2022-11-08T09:09:26.186Z,0.80
2022-11-08T09:12:28.291Z,0.80
2022-11-08T09:15:31.283Z,0.82
2022-11-08T09:18:33.170Z,0.93
2022-11-08T09:21:34.942Z,0.98
2022-11-08T09:24:36.631Z,0.98
2022-11-08T09:27:38.277Z,1.30
2022-11-08T09:30:41.334Z,1.35
2022-11-08T09:33:43.043Z,1.33
2022-11-08T09:36:44.754Z,1.35
2022-11-08T09:39:46.453Z,1.63
2022-11-08T09:43:01.200Z,1.30
2022-11-08T09:46:04.358Z,1.13
2022-11-08T09:49:10.685Z,1.40
2022-11-08T09:52:20.607Z,0.80
2022-11-08T09:55:28.565Z,0.85
2022-11-08T09:58:35.339Z,0.75
2022-11-08T10:01:39.939Z,0.80
2022-11-08T10:04:41.702Z,0.98
2022-11-08T10:07:50.581Z,1.05
2022-11-08T10:11:06.451Z,0.70
2022-11-08T10:14:26.522Z,0.85
2022-11-08T10:17:46.216Z,1.00
2022-11-08T10:21:01.789Z,0.73
2022-11-08T10:24:09.468Z,0.70
2022-11-08T10:27:16.234Z,0.90
2022-11-08T10:30:20.526Z,0.70
2022-11-08T10:33:29.270Z,0.40
2022-11-08T10:36:37.278Z,0.90
2022-11-08T10:39:44.143Z,0.70
2022-11-08T10:42:47.637Z,0.70
2022-11-08T10:45:49.312Z,0.43
2022-11-08T10:48:52.297Z,0.60
2022-11-08T10:51:55.611Z,0.52
2022-11-08T10:54:58.286Z,0.52
2022-11-08T10:58:00.420Z,0.43
2022-11-08T11:01:05.342Z,0.30
2022-11-08T11:04:26.205Z,0.40
2022-11-08T11:07:32.410Z,0.40
2022-11-08T11:10:35.909Z,0.32
2022-11-08T11:13:37.704Z,0.20
2022-11-08T11:16:53.048Z,0.57
2022-11-08T11:19:57.414Z,0.40
2022-11-08T11:23:00.466Z,0.30
2022-11-08T11:26:02.515Z,0.40
2022-11-08T11:29:22.189Z,0.43
2022-11-08T11:32:32.346Z,0.47
2022-11-08T11:35:41.182Z,0.50
2022-11-08T11:38:50.704Z,0.50
2022-11-08T11:41:58.383Z,0.38
2022-11-08T11:45:09.655Z,0.57
2022-11-08T11:48:16.562Z,0.40
2022-11-08T11:51:19.837Z,0.38
2022-11-08T11:54:27.309Z,0.43
2022-11-08T11:57:38.981Z,0.50
2022-11-08T12:00:49.472Z,0.50
2022-11-08T12:04:10.457Z,0.47
2022-11-08T12:07:19.174Z,0.50
2022-11-08T12:10:29.563Z,0.40
2022-11-08T12:13:42.089Z,0.50
2022-11-08T12:16:54.278Z,0.35
2022-11-08T12:20:07.174Z,0.50
2022-11-08T12:23:28.503Z,0.30
2022-11-08T12:26:35.269Z,0.68
2022-11-08T12:29:45.276Z,0.45
2022-11-08T12:33:02.760Z,0.40
2022-11-08T12:36:15.831Z,0.50
2022-11-08T12:39:29.264Z,0.40
2022-11-08T12:42:47.616Z,0.70
2022-11-08T12:45:57.168Z,0.50
2022-11-08T12:49:21.814Z,0.93
2022-11-08T12:52:47.881Z,0.52
2022-11-08T12:55:54.574Z,0.40
2022-11-08T12:58:56.579Z,0.40
2022-11-08T13:02:00.950Z,0.20
2022-11-08T13:05:10.472Z,0.50
2022-11-08T13:08:17.649Z,0.30
2022-11-08T13:11:27.044Z,0.60
2022-11-08T13:14:29.979Z,0.50
2022-11-08T13:17:31.790Z,0.57
2022-11-08T13:20:41.602Z,0.43
2022-11-08T13:23:43.268Z,0.40
2022-11-08T13:26:46.487Z,0.43
2022-11-08T13:29:48.210Z,0.50
2022-11-08T13:32:55.264Z,0.30
2022-11-08T13:36:09.741Z,0.68
2022-11-08T13:39:47.258Z,0.50
2022-11-08T13:43:20.680Z,0.25
2022-11-08T13:46:48.032Z,0.30
2022-11-08T13:49:49.808Z,0.50
2022-11-08T13:53:03.011Z,0.43
2022-11-08T13:56:23.071Z,0.30
2022-11-08T13:59:58.869Z,0.30
2022-11-08T14:03:00.550Z,0.40
2022-11-08T14:06:13.889Z,0.47
2022-11-08T14:09:26.983Z,0.63
2022-11-08T14:12:37.157Z,0.60
2022-11-08T14:15:46.657Z,0.40
2022-11-08T14:18:48.551Z,0.40
2022-11-08T14:21:52.777Z,0.40
2022-11-08T14:25:00.631Z,0.60
2022-11-08T14:28:03.912Z,0.30
2022-11-08T14:31:21.687Z,0.38
2022-11-08T14:34:27.891Z,0.40
2022-11-08T14:37:29.596Z,0.30
2022-11-08T14:40:31.433Z,0.40
2022-11-08T14:43:41.325Z,0.20
2022-11-08T14:46:45.252Z,0.20
2022-11-08T14:49:47.879Z,0.30
2022-11-08T14:52:50.161Z,0.30
2022-11-08T14:56:01.303Z,0.47
2022-11-08T14:59:06.545Z,0.60
2022-11-08T15:02:09.712Z,0.50
2022-11-08T15:05:27.088Z,0.40
2022-11-08T15:08:31.163Z,0.35
2022-11-08T15:11:35.599Z,0.55
2022-11-08T15:14:48.538Z,0.55
2022-11-08T15:18:11.756Z,0.40
2022-11-08T15:21:26.187Z,0.30
2022-11-08T15:24:35.393Z,0.68
2022-11-08T15:27:37.682Z,0.50
2022-11-08T15:30:42.509Z,0.40
2022-11-08T15:33:45.723Z,0.50
2022-11-08T15:36:47.965Z,0.30
2022-11-08T15:39:51.111Z,0.22
2022-11-08T15:42:53.131Z,0.22
2022-11-08T15:45:54.819Z,0.50
2022-11-08T15:48:59.248Z,0.32
2022-11-08T15:52:01.673Z,0.30
2022-11-08T15:55:03.334Z,0.30
2022-11-08T15:58:10.608Z,0.50
2022-11-08T16:01:18.970Z,0.35
2022-11-08T16:04:22.531Z,0.47
2022-11-08T16:07:24.366Z,0.40
2022-11-08T16:10:31.131Z,0.43
2022-11-08T16:13:37.131Z,0.40
2022-11-08T16:16:38.852Z,0.30
2022-11-08T16:19:41.865Z,0.30
2022-11-08T16:22:43.741Z,0.30
2022-11-08T16:25:47.579Z,0.32
2022-11-08T16:28:49.192Z,0.70
2022-11-08T16:31:51.691Z,0.80
2022-11-08T16:34:54.887Z,0.70
2022-11-08T16:37:56.724Z,0.70
2022-11-08T16:40:58.415Z,0.45
2022-11-08T16:44:00.269Z,0.50
2022-11-08T16:47:01.942Z,0.70
2022-11-08T16:50:07.605Z,0.90
2022-11-08T16:53:15.307Z,0.40
2022-11-08T16:56:17.412Z,0.38
2022-11-08T16:59:19.064Z,2.00
2022-11-08T17:02:24.764Z,2.55
2022-11-08T17:05:27.867Z,1.25
2022-11-08T17:08:29.535Z,1.40
2022-11-08T17:11:31.191Z,1.65
2022-11-08T17:14:32.807Z,1.60
2022-11-08T17:17:34.536Z,1.30
2022-11-08T17:20:38.118Z,1.50
2022-11-08T17:23:40.041Z,1.70
2022-11-08T17:26:41.789Z,2.33
2022-11-08T17:29:43.433Z,4.70
2022-11-08T17:32:45.341Z,6.18
2022-11-08T17:35:48.305Z,4.30
2022-11-08T17:38:49.951Z,1.70
2022-11-08T17:41:51.679Z,2.50
2022-11-08T17:44:56.136Z,2.22
2022-11-08T17:47:57.770Z,2.25
2022-11-08T17:51:01.094Z,2.60
2022-11-08T17:54:02.800Z,2.28
2022-11-08T17:57:04.421Z,4.30
2022-11-08T18:00:10.883Z,2.60
2022-11-08T18:03:15.803Z,2.72
2022-11-08T18:06:19.182Z,2.97
2022-11-08T18:09:21.045Z,2.35
2022-11-08T18:12:22.841Z,2.00
2022-11-08T18:15:24.513Z,3.15
2022-11-08T18:18:26.170Z,2.30
2022-11-08T18:21:29.242Z,3.17
2022-11-08T18:24:30.906Z,3.35
2022-11-08T18:27:32.558Z,3.25
2022-11-08T18:30:34.255Z,2.95
2022-11-08T18:33:36.657Z,3.15
2022-11-08T18:36:39.936Z,3.30
2022-11-08T18:39:41.612Z,2.85
2022-11-08T18:42:43.336Z,2.63
2022-11-08T18:45:45.002Z,1.90
2022-11-08T18:48:47.464Z,1.60
2022-11-08T18:51:52.140Z,1.77
2022-11-08T18:54:54.527Z,1.60
2022-11-08T18:57:56.152Z,1.85
2022-11-08T19:00:57.916Z,1.90
2022-11-08T19:03:59.626Z,1.75
2022-11-08T19:07:02.663Z,1.27
2022-11-08T19:10:05.046Z,1.63
2022-11-08T19:13:06.682Z,2.05
2022-11-08T19:16:12.881Z,2.10
2022-11-08T19:19:14.491Z,2.08
2022-11-08T19:22:17.609Z,2.35
2022-11-08T19:25:19.260Z,1.70
2022-11-08T19:28:20.913Z,2.30
2022-11-08T19:31:24.493Z,2.05
2022-11-08T19:34:26.400Z,1.77
2022-11-08T19:37:29.334Z,2.17
2022-11-08T19:40:32.592Z,2.22
2022-11-08T19:43:35.051Z,1.83
2022-11-08T19:46:38.938Z,1.73
2022-11-08T19:49:40.620Z,1.42
2022-11-08T19:52:43.598Z,1.40
2022-11-08T19:55:45.265Z,1.73
2022-11-08T19:58:47.499Z,1.45
2022-11-08T20:01:49.291Z,1.80
2022-11-08T20:04:51.178Z,1.52
2022-11-08T20:07:54.209Z,2.15
2022-11-08T20:10:55.889Z,1.80
2022-11-08T20:13:59.936Z,1.80
2022-11-08T20:17:01.655Z,2.10
2022-11-08T20:20:04.811Z,0.80
2022-11-08T20:23:08.164Z,0.70
2022-11-08T20:26:13.101Z,1.20
2022-11-08T20:29:14.906Z,1.02
2022-11-08T20:32:16.532Z,1.08
2022-11-08T20:35:22.839Z,1.20
2022-11-08T20:38:26.212Z,0.88
2022-11-08T20:41:27.887Z,0.77
2022-11-08T20:44:29.525Z,0.80
2022-11-08T20:47:31.192Z,0.93
2022-11-08T20:50:34.232Z,0.85
2022-11-08T20:53:37.613Z,0.60
2022-11-08T20:56:39.304Z,0.88
2022-11-08T20:59:41.012Z,0.88
2022-11-08T21:02:42.741Z,0.70
2022-11-08T21:05:50.035Z,0.60
2022-11-08T21:09:09.938Z,0.70
2022-11-08T21:12:15.445Z,0.60
2022-11-08T21:15:17.311Z,0.90
2022-11-08T21:18:20.557Z,0.80
2022-11-08T21:21:22.398Z,0.75
2022-11-08T21:24:25.407Z,0.68
2022-11-08T21:27:29.789Z,0.75
2022-11-08T21:30:31.831Z,0.88
2022-11-08T21:33:33.914Z,0.82
2022-11-08T21:36:35.875Z,1.35
2022-11-08T21:39:39.074Z,1.80
2022-11-08T21:42:44.747Z,1.02
2022-11-08T21:45:49.231Z,1.13
2022-11-08T21:48:53.883Z,1.30
2022-11-08T21:51:55.617Z,1.00
2022-11-08T21:54:58.753Z,1.00
2022-11-08T21:58:01.607Z,0.85
2022-11-08T22:01:06.451Z,0.80
2022-11-08T22:04:08.568Z,0.98
2022-11-08T22:07:10.668Z,0.90
2022-11-08T22:10:13.670Z,0.63
2022-11-08T22:13:15.327Z,0.52
2022-11-08T22:16:16.961Z,0.75
2022-11-08T22:19:18.673Z,1.08
2022-11-08T22:22:20.480Z,0.68
2022-11-08T22:25:23.473Z,0.65
2022-11-08T22:28:25.177Z,0.80
2022-11-08T22:31:26.956Z,0.88
2022-11-08T22:34:28.562Z,0.70
2022-11-08T22:37:30.209Z,0.73
2022-11-08T22:40:33.174Z,1.15
2022-11-08T22:43:35.764Z,0.68
2022-11-08T22:46:37.388Z,0.63
2022-11-08T22:49:44.795Z,0.68
2022-11-08T22:52:46.698Z,0.47
2022-11-08T22:55:49.672Z,1.00
2022-11-08T22:58:51.357Z,0.90
2022-11-08T23:01:53.075Z,0.50
2022-11-08T23:04:54.704Z,0.70
2022-11-08T23:07:56.383Z,0.60
2022-11-08T23:11:18.980Z,0.80
2022-11-08T23:14:39.909Z,0.70
2022-11-08T23:17:41.528Z,0.60
2022-11-08T23:21:01.857Z,0.70
2022-11-08T23:24:21.748Z,0.60
2022-11-08T23:27:44.424Z,0.50
2022-11-08T23:31:04.799Z,0.82
2022-11-08T23:34:06.441Z,0.50
2022-11-08T23:37:08.310Z,0.50
2022-11-08T23:40:30.864Z,0.52
2022-11-08T23:43:52.409Z,0.40
2022-11-08T23:46:56.160Z,0.60
2022-11-08T23:49:57.769Z,1.10
2022-11-08T23:52:59.409Z,0.65
2022-11-08T23:56:01.143Z,0.43
2022-11-08T23:59:04.292Z,0.70
